Аэропорт
Астана (UACC)

 UACC / TSE
ЗЦ Центральная Азия
Астана (UACC)
Астана (UACC)
 51.02220, 71.46690  / 1165 ft

 UACC 250900Z 17004MPS 9000 OVC005 M05/M06 Q1019 R22/15//65 NOSIG RMK QBB160 QFE733/0978
 TAF AMD UACC 250820Z 2508/2606 16003MPS 6000 OVC005 TXM02/2606Z TNM06/2508Z TEMPO 2508/2513 3100 -SN BR TEMPO 2513/2523 1000 -SN BR BKN003 FM252300 16009MPS 6000 DRSN BKN007 BKN020 TEMPO 2523/2606 16007G12MPS 3100 SN BLSN
UACC_aip_1708
показать схемы
Название сценария Тип сценария Flight Simulator 9 Flight Simulator X Prepar3D v2 Prepar3D v3 Prepar3D v4 xPlane
Лёгкий сценарий аэропорта г. Астаны бесплатный


2020 © VATRUS division (Privacy Policy)